createdAt,value
2017-05-06T00:01:07.833Z,19.20
2017-05-06T00:03:34.513Z,19.20
2017-05-06T00:06:01.181Z,19.20
2017-05-06T00:08:27.862Z,19.20
2017-05-06T00:10:55.278Z,19.20
2017-05-06T00:13:21.966Z,19.20
2017-05-06T00:15:48.663Z,19.20
2017-05-06T00:18:15.357Z,19.20
2017-05-06T00:20:42.029Z,19.20
2017-05-06T00:23:08.721Z,19.20
2017-05-06T00:25:35.417Z,19.20
2017-05-06T00:28:02.109Z,19.20
2017-05-06T00:30:28.781Z,19.20
2017-05-06T00:32:55.457Z,19.20
2017-05-06T00:35:22.882Z,19.10
2017-05-06T00:37:49.665Z,19.20
2017-05-06T00:40:16.353Z,19.20
2017-05-06T00:42:43.017Z,19.20
2017-05-06T00:45:09.741Z,19.20
2017-05-06T00:47:36.429Z,19.20
2017-05-06T00:50:03.121Z,19.20
2017-05-06T00:52:29.818Z,19.20
2017-05-06T00:54:56.535Z,19.20
2017-05-06T00:57:23.214Z,19.20
2017-05-06T00:59:49.926Z,19.20
2017-05-06T01:02:16.631Z,19.20
2017-05-06T01:04:43.301Z,19.20
2017-05-06T01:07:10.025Z,19.20
2017-05-06T01:09:36.725Z,19.20
2017-05-06T01:12:03.433Z,19.20
2017-05-06T01:14:30.297Z,19.20
2017-05-06T01:16:57.014Z,19.20
2017-05-06T01:19:23.688Z,19.20
2017-05-06T01:21:50.381Z,19.20
2017-05-06T01:24:17.070Z,19.20
2017-05-06T01:26:43.757Z,19.10
2017-05-06T01:29:10.436Z,19.20
2017-05-06T01:31:37.137Z,19.20
2017-05-06T01:34:03.813Z,19.20
2017-05-06T01:36:30.565Z,19.20
2017-05-06T01:38:57.250Z,19.20
2017-05-06T01:41:23.934Z,19.20
2017-05-06T01:43:50.639Z,19.20
2017-05-06T01:46:17.325Z,19.20
2017-05-06T01:48:44.029Z,19.20
2017-05-06T01:51:10.738Z,19.20
2017-05-06T01:53:37.489Z,19.10
2017-05-06T01:56:04.175Z,19.10
2017-05-06T01:58:30.892Z,19.20
2017-05-06T02:00:57.582Z,19.20
2017-05-06T02:03:25.010Z,19.10
2017-05-06T02:05:51.690Z,19.10
2017-05-06T02:08:18.377Z,19.10
2017-05-06T02:10:45.061Z,19.10
2017-05-06T02:13:12.512Z,19.10
2017-05-06T02:15:39.933Z,19.10
2017-05-06T02:18:06.641Z,19.10
2017-05-06T02:20:33.316Z,19.20
2017-05-06T02:22:59.998Z,19.20
2017-05-06T02:25:26.702Z,19.10
2017-05-06T02:27:53.381Z,19.10
2017-05-06T02:30:20.087Z,19.20
2017-05-06T02:32:46.779Z,19.20
2017-05-06T02:35:13.473Z,19.10
2017-05-06T02:37:40.151Z,19.10
2017-05-06T02:40:06.861Z,19.10
2017-05-06T02:42:33.546Z,19.10
2017-05-06T02:45:00.237Z,19.10
2017-05-06T02:47:26.914Z,19.10
2017-05-06T02:49:53.621Z,19.10
2017-05-06T02:52:20.301Z,19.10
2017-05-06T02:54:47.011Z,19.10
2017-05-06T02:57:13.725Z,19.10
2017-05-06T02:59:40.409Z,19.10
2017-05-06T03:02:07.106Z,19.10
2017-05-06T03:04:34.517Z,19.10
2017-05-06T03:07:01.230Z,19.10
2017-05-06T03:09:27.933Z,19.10
2017-05-06T03:11:54.609Z,19.10
2017-05-06T03:14:21.318Z,19.10
2017-05-06T03:16:48.737Z,19.00
2017-05-06T03:19:15.420Z,19.10
2017-05-06T03:21:42.879Z,19.10
2017-05-06T03:24:10.385Z,19.10
2017-05-06T03:26:37.093Z,19.10
2017-05-06T03:29:03.787Z,19.10
2017-05-06T03:31:30.502Z,19.10
2017-05-06T03:33:57.194Z,19.20
2017-05-06T03:36:23.897Z,19.10
2017-05-06T03:38:50.641Z,19.10
2017-05-06T03:41:17.317Z,19.10
2017-05-06T03:43:44.009Z,19.10
2017-05-06T03:46:10.770Z,19.10
2017-05-06T03:48:37.676Z,19.10
2017-05-06T03:51:04.350Z,19.20
2017-05-06T03:53:31.183Z,19.10
2017-05-06T03:55:57.865Z,19.10
2017-05-06T03:58:24.553Z,19.10
2017-05-06T04:00:51.321Z,19.10
2017-05-06T04:03:18.015Z,19.10
2017-05-06T04:05:44.716Z,19.10
2017-05-06T04:08:11.462Z,19.10
2017-05-06T04:10:38.138Z,19.10
2017-05-06T04:13:04.811Z,19.10
2017-05-06T04:15:31.561Z,19.10
2017-05-06T04:17:58.229Z,19.10
2017-05-06T04:20:24.921Z,19.10
2017-05-06T04:22:51.633Z,19.10
2017-05-06T04:25:18.324Z,19.10
2017-05-06T04:27:44.991Z,19.20
2017-05-06T04:30:11.712Z,19.20
2017-05-06T04:32:38.394Z,19.20
2017-05-06T04:35:05.324Z,19.20
2017-05-06T04:37:31.993Z,19.20
2017-05-06T04:39:59.437Z,19.20
2017-05-06T04:42:26.146Z,19.20
2017-05-06T04:44:52.833Z,19.20
2017-05-06T04:47:19.509Z,19.20
2017-05-06T04:49:46.238Z,19.20
2017-05-06T04:52:12.921Z,19.20
2017-05-06T04:54:39.609Z,19.20
2017-05-06T04:57:06.318Z,19.20
2017-05-06T04:59:33.011Z,19.20
2017-05-06T05:01:59.713Z,19.20
2017-05-06T05:04:26.442Z,19.20
2017-05-06T05:06:53.129Z,19.20
2017-05-06T05:09:19.825Z,19.20
2017-05-06T05:11:46.562Z,19.30
2017-05-06T05:14:13.249Z,19.30
2017-05-06T05:16:39.950Z,19.40
2017-05-06T05:19:07.377Z,19.30
2017-05-06T05:21:34.075Z,19.50
2017-05-06T05:24:00.853Z,19.60
2017-05-06T05:26:27.537Z,19.70
2017-05-06T05:28:54.202Z,19.70
2017-05-06T05:31:20.918Z,19.70
2017-05-06T05:33:48.345Z,19.60
2017-05-06T05:36:15.062Z,19.60
2017-05-06T05:38:41.957Z,19.70
2017-05-06T05:41:09.373Z,19.70
2017-05-06T05:43:36.059Z,19.80
2017-05-06T05:46:02.779Z,20.10
2017-05-06T05:48:29.481Z,20.20
2017-05-06T05:50:56.166Z,20.60
2017-05-06T05:53:23.609Z,20.90
2017-05-06T05:55:50.329Z,22.10
2017-05-06T05:58:17.009Z,23.50
2017-05-06T06:00:44.794Z,23.90
2017-05-06T06:03:11.515Z,24.30
2017-05-06T06:05:39.889Z,24.10
2017-05-06T06:08:07.320Z,23.50
2017-05-06T06:10:34.117Z,23.60
2017-05-06T06:13:00.828Z,23.10
2017-05-06T06:15:28.245Z,22.50
2017-05-06T06:17:54.918Z,22.40
2017-05-06T06:20:22.362Z,22.00
2017-05-06T06:22:49.039Z,21.80
2017-05-06T06:25:15.729Z,21.60
2017-05-06T06:27:42.449Z,21.40
2017-05-06T06:30:09.167Z,21.30
2017-05-06T06:32:35.840Z,21.20
2017-05-06T06:35:02.541Z,21.10
2017-05-06T06:37:29.240Z,21.10
2017-05-06T06:39:56.677Z,21.10
2017-05-06T06:42:24.600Z,21.10
2017-05-06T06:44:51.314Z,21.10
2017-05-06T06:47:18.072Z,21.10
2017-05-06T06:49:44.975Z,21.10
2017-05-06T06:52:11.690Z,21.00
2017-05-06T06:54:38.374Z,21.00
2017-05-06T06:57:05.068Z,21.00
2017-05-06T06:59:31.754Z,21.00
2017-05-06T07:01:59.205Z,20.90
2017-05-06T07:04:26.687Z,21.00
2017-05-06T07:06:53.385Z,21.00
2017-05-06T07:09:20.162Z,21.00
2017-05-06T07:11:46.853Z,20.90
2017-05-06T07:14:13.553Z,20.90
2017-05-06T07:16:40.241Z,20.90
2017-05-06T07:19:06.942Z,20.80
2017-05-06T07:21:33.625Z,20.90
2017-05-06T07:24:00.307Z,20.80
2017-05-06T07:26:27.002Z,20.80
2017-05-06T07:28:53.713Z,20.80
2017-05-06T07:31:20.442Z,20.70
2017-05-06T07:33:47.122Z,20.70
2017-05-06T07:36:13.798Z,20.70
2017-05-06T07:38:40.518Z,20.70
2017-05-06T07:41:07.935Z,20.70
2017-05-06T07:43:34.613Z,20.80
2017-05-06T07:46:02.031Z,20.90
2017-05-06T07:48:28.730Z,21.00
2017-05-06T07:50:55.438Z,21.00
2017-05-06T07:53:22.145Z,21.00
2017-05-06T07:55:48.848Z,21.10
2017-05-06T07:58:15.565Z,21.10
2017-05-06T08:00:42.329Z,21.10
2017-05-06T08:03:09.065Z,21.20
2017-05-06T08:05:35.853Z,21.20
2017-05-06T08:08:02.563Z,21.20
2017-05-06T08:10:29.267Z,21.30
2017-05-06T08:12:55.945Z,21.40
2017-05-06T08:15:22.645Z,21.60
2017-05-06T08:17:49.328Z,21.80
2017-05-06T08:20:16.029Z,22.10
2017-05-06T08:22:43.481Z,22.10
2017-05-06T08:25:11.316Z,22.10
2017-05-06T08:27:38.245Z,22.10
2017-05-06T08:30:05.209Z,22.00
2017-05-06T08:32:32.660Z,21.90
2017-05-06T08:34:59.390Z,22.20
2017-05-06T08:37:26.080Z,22.40
2017-05-06T08:39:52.839Z,22.40
2017-05-06T08:42:19.525Z,22.40
2017-05-06T08:44:46.235Z,22.30
2017-05-06T08:47:12.949Z,22.30
2017-05-06T08:49:39.632Z,22.30
2017-05-06T08:52:06.309Z,22.20
2017-05-06T08:54:33.813Z,22.10
2017-05-06T08:57:00.516Z,22.20
2017-05-06T08:59:27.301Z,22.10
2017-05-06T09:01:54.097Z,22.10
2017-05-06T09:04:20.787Z,22.10
2017-05-06T09:06:47.465Z,22.10
2017-05-06T09:09:14.293Z,22.10
2017-05-06T09:11:41.065Z,22.20
2017-05-06T09:14:07.793Z,22.30
2017-05-06T09:16:34.501Z,22.20
2017-05-06T09:19:01.421Z,22.10
2017-05-06T09:21:28.110Z,22.10
2017-05-06T09:23:54.809Z,22.10
2017-05-06T09:26:21.531Z,22.10
2017-05-06T09:28:48.255Z,22.10
2017-05-06T09:31:14.942Z,22.10
2017-05-06T09:33:41.632Z,22.10
2017-05-06T09:36:08.434Z,22.10
2017-05-06T09:38:35.117Z,22.10
2017-05-06T09:41:01.833Z,22.10
2017-05-06T09:43:28.538Z,22.10
2017-05-06T09:45:55.217Z,22.20
2017-05-06T09:48:21.898Z,22.10
2017-05-06T09:50:48.630Z,22.20
2017-05-06T09:53:15.317Z,22.20
2017-05-06T09:55:42.766Z,22.30
2017-05-06T09:58:10.185Z,22.20
2017-05-06T10:00:36.893Z,22.30
2017-05-06T10:03:03.565Z,22.20
2017-05-06T10:05:30.304Z,22.10
2017-05-06T10:07:56.981Z,22.10
2017-05-06T10:10:23.677Z,22.00
2017-05-06T10:12:50.350Z,21.50
2017-05-06T10:15:17.069Z,21.30
2017-05-06T10:17:43.893Z,21.20
2017-05-06T10:20:10.566Z,20.90
2017-05-06T10:22:37.473Z,20.60
2017-05-06T10:25:04.158Z,20.20
2017-05-06T10:27:30.869Z,20.30
2017-05-06T10:29:57.553Z,20.50
2017-05-06T10:32:24.986Z,20.60
2017-05-06T10:34:51.670Z,20.60
2017-05-06T10:37:18.423Z,20.50
2017-05-06T10:39:45.127Z,20.60
2017-05-06T10:42:12.601Z,20.50
2017-05-06T10:44:39.288Z,20.30
2017-05-06T10:47:05.982Z,20.30
2017-05-06T10:49:32.757Z,20.00
2017-05-06T10:51:59.432Z,19.70
2017-05-06T10:54:26.118Z,19.60
2017-05-06T10:56:52.836Z,19.50
2017-05-06T10:59:19.525Z,19.70
2017-05-06T11:01:46.561Z,20.00
2017-05-06T11:04:13.387Z,20.20
2017-05-06T11:06:40.124Z,20.20
2017-05-06T11:09:06.858Z,20.10
2017-05-06T11:11:33.529Z,20.30
2017-05-06T11:14:00.239Z,20.20
2017-05-06T11:16:26.960Z,20.40
2017-05-06T11:18:53.649Z,20.40
2017-05-06T11:21:20.378Z,20.40
2017-05-06T11:23:47.074Z,20.40
2017-05-06T11:26:13.830Z,20.30
2017-05-06T11:28:40.504Z,20.30
2017-05-06T11:31:07.186Z,20.40
2017-05-06T11:33:33.873Z,20.20
2017-05-06T11:36:00.557Z,20.20
2017-05-06T11:38:27.236Z,20.30
2017-05-06T11:40:53.910Z,20.10
2017-05-06T11:43:20.573Z,19.50
2017-05-06T11:45:47.296Z,19.70
2017-05-06T11:48:13.976Z,19.90
2017-05-06T11:50:40.704Z,20.00
2017-05-06T11:53:07.409Z,20.20
2017-05-06T11:55:34.117Z,20.30
2017-05-06T11:58:00.799Z,20.50
2017-05-06T12:00:35.070Z,20.50
2017-05-06T12:03:01.804Z,20.60
2017-05-06T12:05:28.472Z,20.60
2017-05-06T12:07:55.389Z,20.30
2017-05-06T12:10:22.057Z,19.90
2017-05-06T12:12:48.741Z,19.80
2017-05-06T12:15:15.457Z,19.80
2017-05-06T12:17:42.895Z,19.70
2017-05-06T12:20:09.597Z,20.00
2017-05-06T12:22:36.334Z,20.00
2017-05-06T12:25:03.005Z,20.00
2017-05-06T12:27:29.694Z,20.10
2017-05-06T12:29:56.365Z,20.20
2017-05-06T12:32:23.093Z,20.20
2017-05-06T12:34:49.762Z,20.10
2017-05-06T12:37:16.482Z,19.90
2017-05-06T12:39:43.172Z,20.10
2017-05-06T12:42:09.929Z,19.80
2017-05-06T12:44:36.642Z,19.70
2017-05-06T12:47:04.069Z,19.70
2017-05-06T12:49:30.753Z,19.90
2017-05-06T12:51:57.436Z,20.10
2017-05-06T12:54:24.309Z,20.20
2017-05-06T12:56:51.041Z,20.20
2017-05-06T12:59:17.729Z,20.10
2017-05-06T13:01:44.411Z,20.30
2017-05-06T13:04:11.104Z,20.40
2017-05-06T13:06:37.793Z,20.30
2017-05-06T13:09:04.601Z,20.20
2017-05-06T13:11:31.283Z,20.00
2017-05-06T13:13:58.010Z,20.00
2017-05-06T13:16:24.697Z,20.00
2017-05-06T13:18:51.573Z,20.10
2017-05-06T13:21:18.408Z,20.30
2017-05-06T13:23:45.304Z,20.40
2017-05-06T13:26:12.009Z,20.30
2017-05-06T13:28:38.680Z,20.10
2017-05-06T13:31:06.141Z,20.00
2017-05-06T13:33:32.964Z,19.80
2017-05-06T13:35:59.868Z,19.90
2017-05-06T13:38:26.605Z,20.00
2017-05-06T13:40:53.289Z,20.00
2017-05-06T13:43:19.953Z,20.00
2017-05-06T13:45:46.658Z,20.20
2017-05-06T13:48:13.341Z,20.00
2017-05-06T13:50:40.035Z,20.00
2017-05-06T13:53:06.716Z,19.90
2017-05-06T13:55:33.417Z,19.90
2017-05-06T13:58:00.101Z,20.10
2017-05-06T14:00:26.825Z,20.10
2017-05-06T14:02:53.614Z,20.10
2017-05-06T14:05:20.288Z,20.20
2017-05-06T14:07:47.710Z,20.00
2017-05-06T14:10:14.482Z,19.80
2017-05-06T14:12:41.194Z,19.70
2017-05-06T14:15:07.858Z,19.70
2017-05-06T14:17:35.365Z,19.70
2017-05-06T14:20:02.049Z,19.70
2017-05-06T14:22:28.734Z,19.60
2017-05-06T14:24:55.413Z,19.50
2017-05-06T14:27:22.093Z,19.50
2017-05-06T14:29:48.778Z,19.50
2017-05-06T14:32:15.465Z,19.70
2017-05-06T14:34:42.149Z,19.60
2017-05-06T14:37:08.836Z,19.70
2017-05-06T14:39:36.253Z,19.70
2017-05-06T14:42:02.953Z,19.80
2017-05-06T14:44:29.641Z,19.80
2017-05-06T14:46:56.340Z,19.70
2017-05-06T14:49:23.041Z,19.80
2017-05-06T14:51:50.449Z,19.60
2017-05-06T14:54:17.163Z,19.80
2017-05-06T14:56:43.849Z,19.90
2017-05-06T14:59:10.536Z,19.90
2017-05-06T15:01:37.237Z,19.80
2017-05-06T15:04:03.963Z,20.00
2017-05-06T15:06:30.637Z,19.90
2017-05-06T15:08:57.325Z,19.60
2017-05-06T15:11:24.000Z,19.70
2017-05-06T15:13:50.714Z,19.60
2017-05-06T15:16:17.397Z,19.70
2017-05-06T15:18:44.123Z,19.90
2017-05-06T15:21:11.549Z,19.80
2017-05-06T15:23:38.241Z,19.70
2017-05-06T15:26:04.919Z,19.70
2017-05-06T15:28:31.621Z,19.60
2017-05-06T15:30:58.375Z,19.60
2017-05-06T15:33:25.048Z,19.40
2017-05-06T15:35:51.769Z,19.40
2017-05-06T15:38:18.467Z,19.20
2017-05-06T15:40:45.161Z,19.30
2017-05-06T15:43:11.848Z,19.30
2017-05-06T15:45:38.545Z,19.30
2017-05-06T15:48:05.243Z,19.20
2017-05-06T15:50:31.929Z,19.30
2017-05-06T15:52:58.622Z,19.20
2017-05-06T15:55:25.330Z,19.20
2017-05-06T15:57:52.014Z,19.10
2017-05-06T16:00:18.738Z,19.00
2017-05-06T16:02:45.429Z,19.00
2017-05-06T16:05:12.161Z,19.00
2017-05-06T16:07:38.847Z,19.10
2017-05-06T16:10:05.529Z,19.20
2017-05-06T16:12:32.213Z,19.20
2017-05-06T16:14:58.885Z,19.20
2017-05-06T16:17:25.577Z,19.30
2017-05-06T16:19:53.001Z,19.10
2017-05-06T16:22:19.685Z,19.20
2017-05-06T16:24:46.350Z,19.30
2017-05-06T16:27:13.138Z,19.30
2017-05-06T16:29:40.557Z,19.30
2017-05-06T16:32:07.249Z,19.40
2017-05-06T16:34:34.670Z,19.30
2017-05-06T16:37:01.457Z,19.10
2017-05-06T16:39:28.135Z,19.10
2017-05-06T16:41:54.833Z,19.10
2017-05-06T16:44:21.741Z,19.30
2017-05-06T16:46:48.438Z,19.30
2017-05-06T16:49:15.170Z,19.40
2017-05-06T16:51:41.949Z,19.40
2017-05-06T16:54:08.647Z,19.20
2017-05-06T16:56:35.335Z,19.40
2017-05-06T16:59:02.034Z,19.40
2017-05-06T17:01:28.709Z,19.50
2017-05-06T17:03:55.385Z,19.50
2017-05-06T17:06:22.069Z,19.60
2017-05-06T17:08:48.761Z,19.60
2017-05-06T17:11:15.450Z,19.60
2017-05-06T17:13:42.137Z,19.50
2017-05-06T17:16:08.822Z,19.60
2017-05-06T17:18:35.525Z,19.60
2017-05-06T17:21:02.218Z,19.60
2017-05-06T17:23:28.897Z,19.60
2017-05-06T17:25:55.574Z,19.50
2017-05-06T17:28:22.284Z,19.40
2017-05-06T17:30:48.983Z,19.30
2017-05-06T17:33:15.661Z,19.50
2017-05-06T17:35:42.374Z,19.40
2017-05-06T17:38:09.821Z,19.30
2017-05-06T17:40:37.269Z,19.30
2017-05-06T17:43:03.947Z,19.30
2017-05-06T17:45:30.630Z,19.40
2017-05-06T17:47:57.353Z,19.40
2017-05-06T17:50:24.045Z,19.40
2017-05-06T17:52:51.477Z,19.30
2017-05-06T17:55:18.161Z,19.20
2017-05-06T17:57:44.843Z,19.30
2017-05-06T18:00:11.541Z,19.30
2017-05-06T18:02:38.226Z,19.30
2017-05-06T18:05:05.149Z,19.20
2017-05-06T18:07:31.858Z,19.20
2017-05-06T18:09:58.638Z,19.30
2017-05-06T18:12:25.317Z,19.20
2017-05-06T18:14:52.029Z,19.30
2017-05-06T18:17:18.785Z,19.30
2017-05-06T18:19:45.462Z,19.20
2017-05-06T18:22:12.167Z,19.10
2017-05-06T18:24:38.873Z,19.00
2017-05-06T18:27:05.577Z,19.00
2017-05-06T18:29:32.328Z,19.00
2017-05-06T18:31:59.017Z,19.10
2017-05-06T18:34:25.797Z,19.10
2017-05-06T18:36:52.473Z,19.10
2017-05-06T18:39:19.170Z,19.10
2017-05-06T18:41:45.841Z,19.10
2017-05-06T18:44:12.617Z,19.00
2017-05-06T18:46:39.285Z,19.00
2017-05-06T18:49:06.045Z,18.90
2017-05-06T18:51:32.723Z,19.00
2017-05-06T18:53:59.400Z,18.90
2017-05-06T18:56:26.094Z,18.90
2017-05-06T18:58:52.773Z,18.80
2017-05-06T19:01:19.457Z,18.70
2017-05-06T19:03:46.142Z,18.70
2017-05-06T19:06:13.565Z,18.70
2017-05-06T19:08:40.245Z,18.70
2017-05-06T19:11:07.113Z,18.60
2017-05-06T19:13:33.789Z,18.60
2017-05-06T19:16:00.465Z,18.60
2017-05-06T19:18:27.140Z,18.50
2017-05-06T19:20:53.913Z,18.50
2017-05-06T19:23:20.651Z,18.50
2017-05-06T19:25:47.493Z,18.40
2017-05-06T19:28:14.162Z,18.40
2017-05-06T19:30:40.858Z,18.30
2017-05-06T19:33:07.566Z,18.30
2017-05-06T19:35:34.250Z,18.20
2017-05-06T19:38:00.937Z,18.20
2017-05-06T19:40:27.624Z,18.30
2017-05-06T19:42:54.355Z,18.30
2017-05-06T19:45:21.026Z,18.30
2017-05-06T19:47:48.447Z,18.30
2017-05-06T19:50:15.145Z,18.30
2017-05-06T19:52:41.835Z,18.20
2017-05-06T19:55:08.529Z,18.20
2017-05-06T19:57:35.260Z,18.10
2017-05-06T20:00:02.132Z,18.10
2017-05-06T20:02:28.841Z,18.10
2017-05-06T20:04:55.529Z,18.10
2017-05-06T20:07:22.197Z,18.10
2017-05-06T20:09:48.903Z,18.10
2017-05-06T20:12:15.580Z,18.00
2017-05-06T20:14:42.281Z,17.90
2017-05-06T20:17:08.944Z,18.00
2017-05-06T20:19:36.385Z,17.90
2017-05-06T20:22:03.065Z,17.80
2017-05-06T20:24:29.774Z,17.70
2017-05-06T20:26:56.477Z,17.70
2017-05-06T20:29:23.168Z,17.60
2017-05-06T20:31:49.867Z,17.70
2017-05-06T20:34:16.557Z,17.60
2017-05-06T20:36:43.226Z,17.70
2017-05-06T20:39:09.925Z,17.70
2017-05-06T20:41:36.609Z,17.70
2017-05-06T20:44:03.288Z,17.70
2017-05-06T20:46:30.010Z,17.70
2017-05-06T20:48:56.708Z,17.60
2017-05-06T20:51:23.422Z,17.50
2017-05-06T20:53:50.089Z,17.60
2017-05-06T20:56:16.798Z,17.50
2017-05-06T20:58:43.489Z,17.50
2017-05-06T21:01:10.179Z,17.50
2017-05-06T21:03:36.855Z,17.50
2017-05-06T21:06:03.529Z,17.50
2017-05-06T21:08:30.974Z,17.50
2017-05-06T21:10:57.648Z,17.50
2017-05-06T21:13:24.325Z,17.40
2017-05-06T21:15:51.013Z,17.50
2017-05-06T21:18:17.717Z,17.40
2017-05-06T21:20:44.389Z,17.30
2017-05-06T21:23:11.818Z,17.10
2017-05-06T21:25:38.489Z,17.00
2017-05-06T21:28:05.345Z,17.20
2017-05-06T21:30:32.017Z,17.30
2017-05-06T21:32:58.705Z,17.20
2017-05-06T21:35:25.410Z,17.20
2017-05-06T21:37:52.077Z,17.10
2017-05-06T21:40:19.497Z,17.00
2017-05-06T21:42:46.174Z,17.10
2017-05-06T21:45:12.862Z,17.20
2017-05-06T21:47:39.533Z,17.10
2017-05-06T21:50:06.221Z,17.10
2017-05-06T21:52:32.941Z,17.00
2017-05-06T21:54:59.637Z,17.00
2017-05-06T21:57:26.357Z,17.00
2017-05-06T21:59:53.142Z,17.00
2017-05-06T22:02:20.601Z,17.00
2017-05-06T22:04:48.021Z,17.00
2017-05-06T22:07:14.695Z,17.10
2017-05-06T22:09:42.145Z,16.90
2017-05-06T22:12:09.569Z,16.90
2017-05-06T22:14:36.242Z,16.80
2017-05-06T22:17:03.665Z,16.80
2017-05-06T22:19:30.434Z,16.80
2017-05-06T22:21:57.114Z,16.80
2017-05-06T22:24:23.836Z,16.80
2017-05-06T22:26:50.518Z,16.90
2017-05-06T22:29:17.205Z,16.90
2017-05-06T22:31:43.901Z,16.80
2017-05-06T22:34:10.578Z,16.70
2017-05-06T22:36:37.280Z,16.70
2017-05-06T22:39:03.962Z,16.70
2017-05-06T22:41:30.661Z,16.80
2017-05-06T22:43:57.329Z,16.80
2017-05-06T22:46:24.749Z,16.70
2017-05-06T22:48:51.424Z,16.70
2017-05-06T22:51:18.906Z,16.60
2017-05-06T22:53:45.566Z,16.60
2017-05-06T22:56:12.267Z,16.70
2017-05-06T22:58:38.993Z,16.70
2017-05-06T23:01:06.497Z,16.70
2017-05-06T23:03:33.202Z,16.80
2017-05-06T23:05:59.961Z,17.00
2017-05-06T23:08:26.648Z,17.50
2017-05-06T23:10:53.321Z,17.80
2017-05-06T23:13:20.004Z,18.00
2017-05-06T23:15:46.699Z,18.10
2017-05-06T23:18:13.414Z,18.20
2017-05-06T23:20:40.886Z,18.20
2017-05-06T23:23:08.314Z,18.30
2017-05-06T23:25:34.994Z,18.40
2017-05-06T23:28:01.849Z,18.40
2017-05-06T23:30:28.811Z,18.40
2017-05-06T23:32:55.482Z,18.40
2017-05-06T23:35:22.174Z,18.50
2017-05-06T23:37:48.879Z,18.50
2017-05-06T23:40:15.584Z,18.50
2017-05-06T23:42:42.268Z,18.50
2017-05-06T23:45:09.710Z,18.50
2017-05-06T23:47:36.403Z,18.50
2017-05-06T23:50:03.098Z,18.60
2017-05-06T23:52:30.542Z,18.50
2017-05-06T23:54:57.217Z,18.60
2017-05-06T23:57:23.926Z,18.60
2017-05-06T23:59:50.615Z,18.60
